Stations météo

Publicité
Beg Melen, France (7203): Température de l'air & dewpoint: 12.01.2018 14:00:00 - 18.01.2018 14:00:00 (CET)Beg Melen, France (7203): Vitesse du vent & gusts: 12.01.2018 14:00:00 - 18.01.2018 14:00:00 (CET)Beg Melen, France (7203): Direction du vent: 12.01.2018 14:00:00 - 18.01.2018 14:00:00 (CET)Beg Melen, France (7203): visibility: 12.01.2018 14:00:00 - 18.01.2018 14:00:00 (CET)Beg Melen, France (7203): Quantités de précipitations: 12.01.2018 14:00:00 - 18.01.2018 14:00:00 (CET)
Date & Time tt [°C] td [°C] ff [km/h] ff [knt] fx [km/h] fx [knt] dd vv [km] rr [mm]
18.01.2018 14:00:00 11,4 10,9 55 30 84 45 W - 0,4
18.01.2018 13:00:00 11,7 11,2 40 22 74 40 W 4,0 0,2
18.01.2018 12:00:00 11,7 11,2 48 26 79 42 WSW - 0,0
18.01.2018 11:00:00 - - - - - - - - -
18.01.2018 10:00:00 - - - - - - - - -
18.01.2018 09:00:00 - - - - - - - - -
18.01.2018 08:00:00 - - - - - - - - -
18.01.2018 07:00:00 - - - - - - - - -
18.01.2018 06:00:00 - - - - - - - - -
18.01.2018 05:00:00 - - - - - - - - -
18.01.2018 04:00:00 - - - - - - - - -
18.01.2018 03:00:00 - - - - - - - - -
18.01.2018 02:00:00 - - - - - - - - -
18.01.2018 01:00:00 - - - - - - - - -
18.01.2018 00:00:00 - - - - - - - - -
17.01.2018 23:00:00 - - - - - - - - -
17.01.2018 22:00:00 - - - - - - - - -
17.01.2018 21:00:00 - - - - - - - - -
17.01.2018 20:00:00 - - - - - - - - -
17.01.2018 19:00:00 - - - - - - - - -
17.01.2018 18:00:00 - - - - - - - - -
17.01.2018 17:00:00 - - - - - - - - -
17.01.2018 16:00:00 - - - - - - - - -
17.01.2018 15:00:00 - - - - - - - - -
17.01.2018 14:00:00 - - - - - - - - -
17.01.2018 13:00:00 - - - - - - - - -
17.01.2018 12:00:00 - - - - - - - - -
17.01.2018 11:00:00 - - - - - - - - -
17.01.2018 10:00:00 - - - - - - - - -
17.01.2018 09:00:00 - - - - - - - - -
17.01.2018 08:00:00 - - - - - - - - -
17.01.2018 07:00:00 - - - - - - - - -
17.01.2018 06:00:00 - - - - - - - - -
17.01.2018 05:00:00 - - - - - - - - -
17.01.2018 04:00:00 - - - - - - - - -
17.01.2018 03:00:00 - - - - - - - - -
17.01.2018 02:00:00 - - - - - - - - -
17.01.2018 01:00:00 - - - - - - - - -
17.01.2018 00:00:00 - - - - - - - - -
16.01.2018 23:00:00 - - - - - - - - -
16.01.2018 22:00:00 - - - - - - - - -
16.01.2018 21:00:00 - - - - - - - - -
16.01.2018 20:00:00 - - - - - - - - -
16.01.2018 19:00:00 - - - - - - - - -
16.01.2018 18:00:00 - - - - - - - - -
16.01.2018 17:00:00 - - - - - - - - -
16.01.2018 16:00:00 - - - - - - - - -
16.01.2018 15:00:00 - - - - - - - - -
16.01.2018 14:00:00 - - - - - - - - -
16.01.2018 13:00:00 - - - - - - - - -
16.01.2018 12:00:00 - - - - - - - - -
16.01.2018 11:00:00 11,2 8,2 59 32 86 47 W - 0,0
16.01.2018 10:00:00 10,8 8,9 38 21 74 40 W 15 0,0
16.01.2018 09:00:00 10,4 8,5 55 30 93 50 W - 0,0
16.01.2018 08:00:00 11,2 8,2 63 34 84 45 W - 0,0
16.01.2018 07:00:00 10,9 8,6 67 36 94 51 W 12 0,0
16.01.2018 06:00:00 11,1 8,8 56 30 85 46 W - 0,0
16.01.2018 05:00:00 11,4 8,1 54 29 84 45 W - 0,0
16.01.2018 04:00:00 10,9 8,6 59 32 88 48 W 12 0,0
16.01.2018 03:00:00 11,1 8,7 64 34 95 51 W - 0,0
16.01.2018 02:00:00 11,0 8,9 40 21 75 40 W - 0,0
16.01.2018 01:00:00 10,4 8,8 53 29 79 43 W 12 0,4
16.01.2018 00:00:00 11,2 8,9 46 25 78 42 W - 0,0
15.01.2018 23:00:00 11,1 9,0 42 23 81 44 W - 0,0
15.01.2018 22:00:00 11,0 8,9 51 27 83 45 W 15 0,0
15.01.2018 21:00:00 11,0 9,1 40 21 79 42 W - 0,0
15.01.2018 20:00:00 11,1 9,2 47 25 75 40 W - 0,0
15.01.2018 19:00:00 11,1 9,4 41 22 71 39 W 12 0,0
15.01.2018 18:00:00 11,1 9,5 42 23 72 39 W - 0,0
15.01.2018 17:00:00 11,2 9,6 49 26 86 46 W - 0,0
15.01.2018 16:00:00 11,0 9,6 55 30 82 45 W - 0,0
15.01.2018 15:00:00 11,5 10,9 48 26 82 45 W - 0,0
15.01.2018 14:00:00 11,4 10,9 50 27 89 48 W - 0,2
15.01.2018 13:00:00 11,5 11,0 53 29 87 47 W 4,0 0,5
15.01.2018 12:00:00 11,3 10,8 55 30 89 48 WSW - 1,4
15.01.2018 11:00:00 10,7 10,1 62 33 93 50 WSW - 1,6
15.01.2018 10:00:00 10,4 9,8 59 32 89 48 SW 8 1,8
15.01.2018 09:00:00 10,3 9,2 53 29 86 46 SW - 0,6
15.01.2018 08:00:00 10,5 8,4 54 29 76 41 SW - 0,2
15.01.2018 07:00:00 10,5 7,9 44 24 68 37 WSW 25 0,0
15.01.2018 06:00:00 10,5 7,4 38 21 61 33 WSW - 0,0
15.01.2018 05:00:00 10,2 7,8 34 18 55 30 WSW - 0,0
15.01.2018 04:00:00 9,6 7,5 33 18 49 27 SW 25 0,0
15.01.2018 03:00:00 8,9 6,9 30 16 44 24 SSW - 0,0
15.01.2018 02:00:00 8,2 6,2 27 15 37 20 SW - 0,0
15.01.2018 01:00:00 6,9 5,0 19 11 26 14 SSW 20 0,0
15.01.2018 00:00:00 5,2 3,4 15 8 19 11 SW - 0,0
14.01.2018 23:00:00 5,4 3,4 8 5 10 5 WSW - 0,0
14.01.2018 22:00:00 5,9 3,9 6 4 18 10 SSW 20 0,0
14.01.2018 21:00:00 6,2 4,5 9 5 11 6 SSE - 0,0
14.01.2018 20:00:00 5,0 3,5 11 6 14 8 S - 0,0
14.01.2018 19:00:00 5,3 3,6 9 5 11 6 SSE 15 0,0
14.01.2018 18:00:00 5,8 3,5 8 5 13 7 SSE - 0,0
14.01.2018 17:00:00 8,1 4,1 5 3 12 6 E - 0,0
14.01.2018 16:00:00 8,7 4,3 9 5 20 11 N 20 0,0
14.01.2018 15:00:00 7,9 3,9 7 4 16 9 NE - 0,0
14.01.2018 14:00:00 7,9 4,1 10 6 21 11 NNE - 0,0
14.01.2018 13:00:00 7,9 3,9 15 8 28 15 N 20 0,0
14.01.2018 12:00:00 6,6 3,7 14 7 24 13 NNE - 0,0
14.01.2018 11:00:00 5,0 2,7 18 10 40 22 NE - 0,0
14.01.2018 10:00:00 4,7 2,9 24 13 37 20 NNE 15 0,0
14.01.2018 09:00:00 5,0 3,2 21 11 36 19 NNE - 0,0
14.01.2018 08:00:00 5,2 3,2 23 12 38 20 NNE - 0,0
14.01.2018 07:00:00 5,2 3,2 24 13 38 20 NNE 15 0,0
14.01.2018 06:00:00 5,4 3,2 22 12 37 20 NNE - 0,0
14.01.2018 05:00:00 5,4 3,2 24 13 35 19 NNE - 0,0
14.01.2018 04:00:00 5,2 3,4 22 12 39 21 NNE 15 0,0
14.01.2018 03:00:00 5,2 3,4 29 15 42 23 NE - 0,0
14.01.2018 02:00:00 5,6 3,8 27 15 41 22 NNE - 0,0
14.01.2018 01:00:00 5,7 3,7 21 12 36 19 NE 15 0,0
14.01.2018 00:00:00 5,8 3,8 17 9 31 17 ENE - 0,0
13.01.2018 23:00:00 6,0 4,0 17 9 31 17 ENE - 0,0
13.01.2018 22:00:00 6,0 4,0 19 10 33 18 E 15 0,0
13.01.2018 21:00:00 6,1 3,9 21 11 38 21 E - 0,0
13.01.2018 20:00:00 6,2 3,7 20 11 37 20 E - 0,0
13.01.2018 19:00:00 6,4 3,7 19 10 35 19 E 18 0,0
13.01.2018 18:00:00 6,7 4,0 19 11 36 19 E - 0,0
13.01.2018 17:00:00 7,1 4,6 22 12 40 22 ESE - 0,0
13.01.2018 16:00:00 7,0 4,8 28 15 43 23 ESE - 0,0
13.01.2018 15:00:00 6,9 5,2 24 13 44 24 ESE - 0,2
13.01.2018 14:00:00 7,2 5,3 26 14 44 24 ESE - 0,0
13.01.2018 13:00:00 7,5 5,6 27 14 45 24 ESE 8 0,0
13.01.2018 12:00:00 7,9 6,0 29 16 48 26 SE - 0,0
13.01.2018 11:00:00 8,2 6,3 29 16 45 24 SE - 0,0
13.01.2018 10:00:00 8,2 6,7 29 16 45 24 SE 15 0,0
13.01.2018 09:00:00 7,3 5,9 23 13 48 26 ESE - 0,0
13.01.2018 08:00:00 7,1 5,7 28 15 46 25 ESE - 0,0
13.01.2018 07:00:00 7,5 6,1 31 17 49 27 SE 15 0,0
13.01.2018 06:00:00 7,7 6,2 30 16 49 26 SE - 0,0
13.01.2018 05:00:00 8,1 6,1 31 17 50 27 SE - 0,0
13.01.2018 04:00:00 8,3 5,4 28 15 49 26 SE 15 0,0
13.01.2018 03:00:00 7,8 5,4 30 16 51 27 SE - 0,0
13.01.2018 02:00:00 7,6 4,7 32 17 54 29 SE - 0,0
13.01.2018 01:00:00 7,2 5,3 31 17 53 28 ESE 15 0,0
13.01.2018 00:00:00 7,2 5,2 30 16 52 28 SE - 0,0
12.01.2018 23:00:00 7,3 4,8 33 18 51 28 SE - 0,0
12.01.2018 22:00:00 6,9 5,4 29 16 47 26 SE 25 0,0
12.01.2018 21:00:00 6,7 5,0 23 13 42 23 ESE - 0,0
12.01.2018 20:00:00 6,8 4,8 24 13 38 21 SE - 0,0
12.01.2018 19:00:00 6,9 5,0 23 13 36 20 SE 25 0,0
12.01.2018 18:00:00 6,9 4,7 21 12 34 18 SE - 0,0
12.01.2018 17:00:00 6,9 4,7 24 13 35 19 SE - 0,0
12.01.2018 16:00:00 7,3 5,4 21 11 36 19 SE 7 0,0
12.01.2018 15:00:00 7,8 5,6 24 13 37 20 SE - 0,0
12.01.2018 14:00:00 7,6 5,7 24 13 39 21 SE - 0,0

tt = Température de l'air
td = dewpoint
ff = Vitesse du vent
fx = gusts
dd = Direction du vent
vv = visibility
rr = Quantités de précipitations

stations d'obs. à proximité